NACIONALNO OTVORENO PRVENSTVO HRVATSKE U KARTINGU
1. NAGRADA FILTRON-A '08
Čakovec-Belica, 20.04.2008.

KLASA I - 1. UTRKA
Poz. S.b. Vozač Klub Nac. Krug Vrijeme Zaostatak Bod.
1. 4 Matija Kovačić KK 1 Zagreb HR 5 6:05,773 0:00,000 -
2. 2 Muhammad Pličanić AK Info Kart HR 5 6:05,774 0:00,001 -
3. 6 Leo Grdić Podravina Koprivnica HR 5 6:07,081 0:01,308 -
 
KLASA II - 1. UTRKA
Poz. S.b. Vozač Klub Nac. Krug Vrijeme Zaostatak Bod.
1. 3 Juraj Kovačić KK 1 Zagreb HR 10 10:22,175 0:00,000 20
2. 6 Mislav Mikulec AK Info Kart HR 10 10:23,187 0:01,012 15
3. 25 Martin Kodrić KK 1 Zagreb HR 10 10:25,937 0:03,762 12
4. 15 Benjamin Žganec KK 1 Zagreb HR 10 10:33,974 0:11,799 10
5. 21 Damian Sekulić KU Novi Marof HR 10 10:35,148 0:12,973 8
6. 22 Luka Đurđ KK Koprivnica HR 10 11:05,563 0:43,388 6
7. 7 Petra Lesički Podravina Koprivnica HR 10 11:05,844 0:43,669 4
8. 12 Dino Paleka KK Koprivnica HR 10 11:05,915 0:43,740 3
9. 2 Moni Petrović AK Speedy HR 10 11:06,105 0:43,930 2
10. 8 Ivica Šimunić AMK Stubaki HR 9 10:34,141 1 krug 1
11. 14 Šime Hošnjak Podravina Koprivnica HR 7 10:22,047 3 kruga -
 
KLASA II - 2. UTRKA
Poz. S.b. Vozač Klub Nac. Krug Vrijeme Zaostatak Bod.
1. 3 Juraj Kovačić KK 1 Zagreb HR 10 9:59,159 0:00,000 20
2. 2 Moni Petrović AK Speedy HR 10 10:02,260 0:03,101 15
3. 25 Martin Kodrić KK 1 Zagreb HR 10 10:05,680 0:06,521 12
4. 21 Damian Sekulić KU Novi Marof HR 10 10:11,803 0:12,644 10
5. 15 Benjamin Žganec KK 1 Zagreb HR 10 10:12,550 0:13,391 8
6. 12 Dino Paleka KK Koprivnica HR 10 10:34,392 0:35,233 6
7. 7 Petra Lesički Podravina Koprivnica HR 10 10:39,178 0:40,019 4
8. 6 Mislav Mikulec AK Info Kart HR 10 10:40,549 0:41,390 3
9. 22 Luka Đurđ KK Koprivnica HR 10 10:45,858 0:46,699 2
10. 8 Ivica Šimunić AMK Stubaki HR 9 10:09,940 1 krug 1
- 14 Šime Hošnjak Podravina Koprivnica HR 4 odustao -
 
KLASA V - 1. UTRKA
Poz. S.b. Vozač Klub Nac. Krug Vrijeme Zaostatak Bod.
1. 22 Nikola Belohradski Klakson HR 9 7:36,670 0:00,000 20
2. 424 Sanjin Trope AK Quickly HR 9 7:38,396 0:01,726 15
3. 7 Tomislav Pavlić KK 1 Zagreb HR 9 7:42,215 0:05,545 12
4. 405 Borna Vlašić Podravina Koprivnica HR 9 7:42,750 0:06,080 10
5. 25 Antun Bošnjak KK Koprivnica HR 9 7:48,153 0:11,483 8
 
KLASA V - 2. UTRKA
Poz. S.b. Vozač Klub Nac. Krug Vrijeme Zaostatak Bod.
1. 22 Nikola Belohradski Klakson HR 9 7:38,456 0:00,000 20
2. 424 Sanjin Trope AK Quickly HR 9 7:39,676 0:01,220 15
3. 405 Borna Vlašić Podravina Koprivnica HR 9 7:46,731 0:08,275 12
4. 7 Tomislav Pavlić KK 1 Zagreb HR 9 7:47,881 0:09,425 10
5. 25 Antun Bošnjak KK Koprivnica HR 9 7:49,471 0:11,015 8
 
KLASA VII - 1. UTRKA
Poz. S.b. Vozač Klub Nac. Krug Vrijeme Zaostatak Bod.
1. 2 Damir Nakić KK 1 Zagreb HR 10 8:23,992 0:00,000 20
2. 1 Ratko Medenec KK 1 Zagreb HR 10 8:26,713 0:02,721 15
3. 22 Branimir Radić AMD Zrinski HR 10 8:28,398 0:04,406 12
4. 10 Zlatko Banić SAK Split HR 10 8:34,988 0:10,996 10
5. 3 Miljenko Antolić KK 1 Zagreb HR 10 8:35,766 0:11,774 8
6. 5 Tomislav Lovrenc AMK Cobra HR 9 9:17,125 1 krug 6
 
KLASA VII - 2. UTRKA
Poz. S.b. Vozač Klub Nac. Krug Vrijeme Zaostatak Bod.
1. 22 Branimir Radić AMD Zrinski HR 10 8:32,989 0:00,000 20
2. 2 Damir Nakić KK 1 Zagreb HR 10 8:37,123 0:04,134 15
3. 3 Miljenko Antolić KK 1 Zagreb HR 10 8:37,525 0:04,536 12
4. 10 Zlatko Banić SAK Split HR 10 8:38,394 0:05,405 10
5. 1 Ratko Medenec KK 1 Zagreb HR 9 8:31,116 1 krug 8
6. 5 Tomislav Lovrenc AMK Cobra HR 9 9:09,846 1 krug 6
 
KLASA VIII - 1. UTRKA
Poz. S.b. Vozač Klub Nac. Krug Vrijeme Zaostatak Bod.
1. 13 Matija Momčilović Podravina Koprivnica HR 9 7:27,578 0:00,000 20
2. 4 Karlo Golub KK 1 Zagreb HR 9 7:31,906 0:04,328 15
3. 74 Renco Majdak KK 1 Zagreb HR 9 7:32,038 0:04,460 12
4. 2 Tomislav Srbljinović KK 1 Zagreb HR 9 7:32,535 0:04,957 10
5. 1 Sven Gorup AMD Zanatlija HR 9 7:36,879 0:09,301 8
6. 617 Hinko Pavlec KU Novi Marof HR 9 7:40,382 0:12,804 6
 
KLASA VIII - 2. UTRKA
Poz. S.b. Vozač Klub Nac. Krug Vrijeme Zaostatak Bod.
1. 13 Matija Momčilović Podravina Koprivnica HR 9 7:25,657 0:00,000 20
2. 1 Sven Gorup AMD Zanatlija HR 9 7:29,869 0:04,212 15
3. 74 Renco Majdak KK 1 Zagreb HR 9 7:32,294 0:06,637 12
4. 4 Karlo Golub KK 1 Zagreb HR 9 7:32,535 0:06,878 10
5. 2 Tomislav Srbljinović KK 1 Zagreb HR 9 7:33,716 0:08,059 8
6. 617 Hinko Pavlec KU Novi Marof HR 9 7:35,565 0:09,908 6
 
KLASA IX - 1. UTRKA
Poz. S.b. Vozač Klub Nac. Krug Vrijeme Zaostatak Bod.
1. 3 Samir Smailagić AK Info Kart HR 16 14:47,017 0:00,000 20
2. 1 Vladimir Vukobrat AK Info Kart HR 16 14:52,605 0:05,588 15
3. 5 Hrvoje Tisaj KK Koprivnica HR 16 15:18,988 0:31,971 12
4. 18 Nino Kovačić KK 1 Zagreb HR 16 15:19,348 0:32,331 10
5. 4 Tihomir Špek KK 1 Zagreb HR 16 15:23,513 0:36,496 8
6. 13 Tomislav Kelbl KK Koprivnica HR 16 15:36,606 0:49,589 6
7. 9 Davor Šipek AK Siget HR 16 15:41,121 0:54,104 4
8. 22 Miljenko Šimunić AMK Stubaki HR 15 15:23,472 1 krug 3
9. 17 Alan Vorkapić KK Koprivnica HR 13 15:11,288 3 kruga 2
- 7 Ninoslav Banić KK 1 Zagreb HR 7 odustao -
 
KLASA IX - 2. UTRKA
Poz. S.b. Vozač Klub Nac. Krug Vrijeme Zaostatak Bod.
1. 3 Samir Smailagić AK Info Kart HR 10 9:15,160 0:00,000 20
2. 1 Vladimir Vukobrat AK Info Kart HR 10 9:18,359 0:03,199 15
3. 7 Ninoslav Banić KK 1 Zagreb HR 10 9:33,783 0:18,623 12
4. 4 Tihomir Špek KK 1 Zagreb HR 10 9:36,987 0:21,827 10
5. 9 Davor Šipek AK Siget HR 10 9:37,484 0:22,324 8
6. 13 Tomislav Kelbl KK Koprivnica HR 10 9:52,909 0:37,749 6
7. 18 Nino Kovačić KK 1 Zagreb HR 10 10:01,430 0:46,270 4
8. 22 Miljenko Šimunić AMK Stubaki HR 10 10:04,897 0:49,737 3
9. 5 Hrvoje Tisaj KK Koprivnica HR 9 9:17,583 1 krug 2
- 17 Alan Vorkapić KK Koprivnica HR 2 odustao -
 
PRVENSTVO HRVATSKE